sensor_id;sensor_type;location;lat;lon;timestamp;P1;durP1;ratioP1;P2;durP2;ratioP2
13483;SDS011;6814;57.786;12.080;2023-03-01T00:01:59;2.57;;;2.00;;
13483;SDS011;6814;57.786;12.080;2023-03-01T00:04:26;2.03;;;1.73;;
13483;SDS011;6814;57.786;12.080;2023-03-01T00:06:53;3.23;;;1.80;;
13483;SDS011;6814;57.786;12.080;2023-03-01T00:09:21;1.80;;;1.70;;
13483;SDS011;6814;57.786;12.080;2023-03-01T00:11:48;2.07;;;1.97;;
13483;SDS011;6814;57.786;12.080;2023-03-01T00:14:14;2.23;;;2.00;;
13483;SDS011;6814;57.786;12.080;2023-03-01T00:16:43;2.30;;;2.10;;
13483;SDS011;6814;57.786;12.080;2023-03-01T00:19:11;1.93;;;1.83;;
13483;SDS011;6814;57.786;12.080;2023-03-01T00:21:38;2.60;;;2.17;;
13483;SDS011;6814;57.786;12.080;2023-03-01T00:24:05;2.80;;;1.90;;
13483;SDS011;6814;57.786;12.080;2023-03-01T00:26:33;1.90;;;1.80;;
13483;SDS011;6814;57.786;12.080;2023-03-01T00:28:59;2.70;;;1.80;;
13483;SDS011;6814;57.786;12.080;2023-03-01T00:31:26;1.47;;;1.37;;
13483;SDS011;6814;57.786;12.080;2023-03-01T00:33:54;2.20;;;1.77;;
13483;SDS011;6814;57.786;12.080;2023-03-01T00:36:22;3.83;;;1.63;;
13483;SDS011;6814;57.786;12.080;2023-03-01T00:38:48;1.63;;;1.40;;
13483;SDS011;6814;57.786;12.080;2023-03-01T00:41:16;1.50;;;1.40;;
13483;SDS011;6814;57.786;12.080;2023-03-01T00:43:44;2.30;;;1.20;;
13483;SDS011;6814;57.786;12.080;2023-03-01T00:46:11;2.20;;;1.00;;
13483;SDS011;6814;57.786;12.080;2023-03-01T00:48:37;1.67;;;1.13;;
13483;SDS011;6814;57.786;12.080;2023-03-01T00:51:05;1.23;;;1.13;;
13483;SDS011;6814;57.786;12.080;2023-03-01T00:53:31;0.77;;;0.63;;
13483;SDS011;6814;57.786;12.080;2023-03-01T00:55:58;0.80;;;0.80;;
13483;SDS011;6814;57.786;12.080;2023-03-01T00:58:24;1.13;;;0.97;;
13483;SDS011;6814;57.786;12.080;2023-03-01T01:00:52;0.97;;;0.83;;
13483;SDS011;6814;57.786;12.080;2023-03-01T01:03:19;2.47;;;1.40;;
13483;SDS011;6814;57.786;12.080;2023-03-01T01:05:45;0.70;;;0.70;;
13483;SDS011;6814;57.786;12.080;2023-03-01T01:08:11;1.13;;;1.00;;
13483;SDS011;6814;57.786;12.080;2023-03-01T01:10:38;0.80;;;0.77;;
13483;SDS011;6814;57.786;12.080;2023-03-01T01:13:04;1.07;;;0.97;;
13483;SDS011;6814;57.786;12.080;2023-03-01T01:15:33;1.20;;;0.80;;
13483;SDS011;6814;57.786;12.080;2023-03-01T01:18:01;1.70;;;1.00;;
13483;SDS011;6814;57.786;12.080;2023-03-01T01:20:27;1.40;;;0.70;;
13483;SDS011;6814;57.786;12.080;2023-03-01T01:22:54;6.07;;;1.17;;
13483;SDS011;6814;57.786;12.080;2023-03-01T01:25:20;0.60;;;0.60;;
13483;SDS011;6814;57.786;12.080;2023-03-01T01:27:49;2.80;;;0.90;;
13483;SDS011;6814;57.786;12.080;2023-03-01T01:30:16;0.60;;;0.60;;
13483;SDS011;6814;57.786;12.080;2023-03-01T01:32:42;0.80;;;0.67;;
13483;SDS011;6814;57.786;12.080;2023-03-01T01:35:10;0.63;;;0.63;;
13483;SDS011;6814;57.786;12.080;2023-03-01T01:37:37;1.10;;;0.70;;
13483;SDS011;6814;57.786;12.080;2023-03-01T01:40:03;1.07;;;0.60;;
13483;SDS011;6814;57.786;12.080;2023-03-01T01:42:30;1.03;;;0.87;;
13483;SDS011;6814;57.786;12.080;2023-03-01T01:45:24;1.23;;;1.00;;
13483;SDS011;6814;57.786;12.080;2023-03-01T01:47:52;0.80;;;0.67;;
13483;SDS011;6814;57.786;12.080;2023-03-01T01:50:20;1.23;;;1.13;;
13483;SDS011;6814;57.786;12.080;2023-03-01T01:52:46;0.90;;;0.73;;
13483;SDS011;6814;57.786;12.080;2023-03-01T01:55:15;0.90;;;0.90;;
13483;SDS011;6814;57.786;12.080;2023-03-01T01:57:46;0.93;;;0.93;;
13483;SDS011;6814;57.786;12.080;2023-03-01T02:00:14;0.63;;;0.63;;
13483;SDS011;6814;57.786;12.080;2023-03-01T02:02:41;1.00;;;0.90;;
13483;SDS011;6814;57.786;12.080;2023-03-01T02:05:10;1.67;;;0.90;;
13483;SDS011;6814;57.786;12.080;2023-03-01T02:07:39;1.03;;;1.03;;
13483;SDS011;6814;57.786;12.080;2023-03-01T02:10:06;1.63;;;1.00;;
13483;SDS011;6814;57.786;12.080;2023-03-01T02:12:32;1.00;;;1.00;;
13483;SDS011;6814;57.786;12.080;2023-03-01T02:15:00;1.53;;;1.20;;
13483;SDS011;6814;57.786;12.080;2023-03-01T02:17:26;1.40;;;1.20;;
13483;SDS011;6814;57.786;12.080;2023-03-01T02:19:57;2.33;;;1.23;;
13483;SDS011;6814;57.786;12.080;2023-03-01T02:22:25;1.73;;;1.17;;
13483;SDS011;6814;57.786;12.080;2023-03-01T02:25:01;1.40;;;1.30;;
13483;SDS011;6814;57.786;12.080;2023-03-01T02:27:33;1.70;;;1.30;;
13483;SDS011;6814;57.786;12.080;2023-03-01T02:30:04;1.30;;;1.20;;
13483;SDS011;6814;57.786;12.080;2023-03-01T02:32:31;1.27;;;1.20;;
13483;SDS011;6814;57.786;12.080;2023-03-01T02:34:58;1.50;;;0.97;;
13483;SDS011;6814;57.786;12.080;2023-03-01T02:37:24;1.07;;;0.97;;
13483;SDS011;6814;57.786;12.080;2023-03-01T02:39:53;0.87;;;0.87;;
13483;SDS011;6814;57.786;12.080;2023-03-01T02:42:23;1.03;;;1.03;;
13483;SDS011;6814;57.786;12.080;2023-03-01T02:44:52;0.80;;;0.80;;
13483;SDS011;6814;57.786;12.080;2023-03-01T02:47:21;1.03;;;0.93;;
13483;SDS011;6814;57.786;12.080;2023-03-01T02:49:47;1.03;;;0.93;;
13483;SDS011;6814;57.786;12.080;2023-03-01T02:52:17;2.20;;;1.33;;
13483;SDS011;6814;57.786;12.080;2023-03-01T02:54:48;3.07;;;0.97;;
13483;SDS011;6814;57.786;12.080;2023-03-01T02:57:17;0.83;;;0.83;;
13483;SDS011;6814;57.786;12.080;2023-03-01T02:59:43;0.83;;;0.83;;
13483;SDS011;6814;57.786;12.080;2023-03-01T03:02:18;3.73;;;0.80;;
13483;SDS011;6814;57.786;12.080;2023-03-01T03:04:47;1.93;;;0.83;;
13483;SDS011;6814;57.786;12.080;2023-03-01T03:07:13;2.50;;;1.00;;
13483;SDS011;6814;57.786;12.080;2023-03-01T03:09:40;0.70;;;0.70;;
13483;SDS011;6814;57.786;12.080;2023-03-01T03:12:06;1.17;;;0.80;;
13483;SDS011;6814;57.786;12.080;2023-03-01T03:14:32;0.80;;;0.63;;
13483;SDS011;6814;57.786;12.080;2023-03-01T03:16:59;1.10;;;1.00;;
13483;SDS011;6814;57.786;12.080;2023-03-01T03:19:31;1.10;;;0.80;;
13483;SDS011;6814;57.786;12.080;2023-03-01T03:21:59;0.77;;;0.77;;
13483;SDS011;6814;57.786;12.080;2023-03-01T03:24:25;0.80;;;0.77;;
13483;SDS011;6814;57.786;12.080;2023-03-01T03:26:52;2.00;;;0.83;;
13483;SDS011;6814;57.786;12.080;2023-03-01T03:29:18;1.20;;;1.10;;
13483;SDS011;6814;57.786;12.080;2023-03-01T03:31:45;0.73;;;0.73;;
13483;SDS011;6814;57.786;12.080;2023-03-01T03:34:11;0.80;;;0.80;;
13483;SDS011;6814;57.786;12.080;2023-03-01T03:36:42;1.00;;;0.80;;
13483;SDS011;6814;57.786;12.080;2023-03-01T03:39:10;1.93;;;0.77;;
13483;SDS011;6814;57.786;12.080;2023-03-01T03:41:37;1.07;;;0.97;;
13483;SDS011;6814;57.786;12.080;2023-03-01T03:44:03;1.10;;;0.90;;
13483;SDS011;6814;57.786;12.080;2023-03-01T03:46:30;1.20;;;1.07;;
13483;SDS011;6814;57.786;12.080;2023-03-01T03:48:56;1.00;;;0.83;;
13483;SDS011;6814;57.786;12.080;2023-03-01T03:51:22;1.23;;;0.90;;
13483;SDS011;6814;57.786;12.080;2023-03-01T03:53:49;0.90;;;0.90;;
13483;SDS011;6814;57.786;12.080;2023-03-01T03:56:16;0.90;;;0.90;;
13483;SDS011;6814;57.786;12.080;2023-03-01T03:58:43;0.70;;;0.67;;
13483;SDS011;6814;57.786;12.080;2023-03-01T04:01:09;1.40;;;0.90;;
13483;SDS011;6814;57.786;12.080;2023-03-01T04:03:36;1.07;;;0.73;;
13483;SDS011;6814;57.786;12.080;2023-03-01T04:06:02;1.10;;;1.00;;
13483;SDS011;6814;57.786;12.080;2023-03-01T04:08:29;0.83;;;0.83;;
13483;SDS011;6814;57.786;12.080;2023-03-01T04:10:59;0.77;;;0.70;;
13483;SDS011;6814;57.786;12.080;2023-03-01T04:13:48;0.60;;;0.60;;
13483;SDS011;6814;57.786;12.080;2023-03-01T04:16:14;1.57;;;0.77;;
13483;SDS011;6814;57.786;12.080;2023-03-01T04:18:40;0.70;;;0.67;;
13483;SDS011;6814;57.786;12.080;2023-03-01T04:21:07;2.40;;;0.80;;
13483;SDS011;6814;57.786;12.080;2023-03-01T04:23:33;1.27;;;0.80;;
13483;SDS011;6814;57.786;12.080;2023-03-01T04:26:00;0.60;;;0.60;;
13483;SDS011;6814;57.786;12.080;2023-03-01T04:28:27;1.63;;;0.70;;
13483;SDS011;6814;57.786;12.080;2023-03-01T04:30:56;1.10;;;0.83;;
13483;SDS011;6814;57.786;12.080;2023-03-01T04:33:22;1.57;;;0.60;;
13483;SDS011;6814;57.786;12.080;2023-03-01T04:35:49;1.00;;;0.70;;
13483;SDS011;6814;57.786;12.080;2023-03-01T04:38:16;1.30;;;0.50;;
13483;SDS011;6814;57.786;12.080;2023-03-01T04:40:42;0.57;;;0.57;;
13483;SDS011;6814;57.786;12.080;2023-03-01T04:43:09;0.70;;;0.70;;
13483;SDS011;6814;57.786;12.080;2023-03-01T04:45:36;0.67;;;0.67;;
13483;SDS011;6814;57.786;12.080;2023-03-01T04:48:04;1.77;;;0.67;;
13483;SDS011;6814;57.786;12.080;2023-03-01T04:50:30;2.50;;;1.63;;
13483;SDS011;6814;57.786;12.080;2023-03-01T04:52:57;1.00;;;0.83;;
13483;SDS011;6814;57.786;12.080;2023-03-01T04:55:24;0.90;;;0.80;;
13483;SDS011;6814;57.786;12.080;2023-03-01T04:57:51;2.27;;;1.00;;
13483;SDS011;6814;57.786;12.080;2023-03-01T05:00:18;0.57;;;0.57;;
13483;SDS011;6814;57.786;12.080;2023-03-01T05:02:48;1.03;;;0.60;;
13483;SDS011;6814;57.786;12.080;2023-03-01T05:05:19;1.17;;;0.70;;
13483;SDS011;6814;57.786;12.080;2023-03-01T05:07:46;0.83;;;0.63;;
13483;SDS011;6814;57.786;12.080;2023-03-01T05:10:13;0.50;;;0.50;;
13483;SDS011;6814;57.786;12.080;2023-03-01T05:12:39;0.50;;;0.40;;
13483;SDS011;6814;57.786;12.080;2023-03-01T05:15:06;1.53;;;0.60;;
13483;SDS011;6814;57.786;12.080;2023-03-01T05:17:33;0.90;;;0.70;;
13483;SDS011;6814;57.786;12.080;2023-03-01T05:19:59;0.60;;;0.60;;
13483;SDS011;6814;57.786;12.080;2023-03-01T05:22:27;1.07;;;0.40;;
13483;SDS011;6814;57.786;12.080;2023-03-01T05:24:54;2.07;;;0.70;;
13483;SDS011;6814;57.786;12.080;2023-03-01T05:27:20;0.30;;;0.30;;
13483;SDS011;6814;57.786;12.080;2023-03-01T05:29:47;0.50;;;0.50;;
13483;SDS011;6814;57.786;12.080;2023-03-01T05:32:14;0.90;;;0.90;;
13483;SDS011;6814;57.786;12.080;2023-03-01T05:34:41;0.90;;;0.70;;
13483;SDS011;6814;57.786;12.080;2023-03-01T05:37:07;0.40;;;0.40;;
13483;SDS011;6814;57.786;12.080;2023-03-01T05:39:35;0.57;;;0.57;;
13483;SDS011;6814;57.786;12.080;2023-03-01T05:42:02;0.97;;;0.80;;
13483;SDS011;6814;57.786;12.080;2023-03-01T05:44:28;1.07;;;0.60;;
13483;SDS011;6814;57.786;12.080;2023-03-01T05:46:55;1.23;;;0.70;;
13483;SDS011;6814;57.786;12.080;2023-03-01T05:49:22;0.50;;;0.50;;
13483;SDS011;6814;57.786;12.080;2023-03-01T05:51:49;0.57;;;0.50;;
13483;SDS011;6814;57.786;12.080;2023-03-01T05:54:16;0.60;;;0.60;;
13483;SDS011;6814;57.786;12.080;2023-03-01T05:56:44;0.50;;;0.37;;
13483;SDS011;6814;57.786;12.080;2023-03-01T05:59:11;0.90;;;0.70;;
13483;SDS011;6814;57.786;12.080;2023-03-01T06:01:38;1.27;;;0.80;;
13483;SDS011;6814;57.786;12.080;2023-03-01T06:04:05;1.30;;;1.20;;
13483;SDS011;6814;57.786;12.080;2023-03-01T06:06:33;1.17;;;0.90;;
13483;SDS011;6814;57.786;12.080;2023-03-01T06:09:00;2.80;;;1.03;;
13483;SDS011;6814;57.786;12.080;2023-03-01T06:11:26;1.23;;;1.00;;
13483;SDS011;6814;57.786;12.080;2023-03-01T06:13:54;1.20;;;0.90;;
13483;SDS011;6814;57.786;12.080;2023-03-01T06:16:20;1.33;;;1.23;;
13483;SDS011;6814;57.786;12.080;2023-03-01T06:18:47;1.37;;;0.83;;
13483;SDS011;6814;57.786;12.080;2023-03-01T06:21:13;2.87;;;1.00;;
13483;SDS011;6814;57.786;12.080;2023-03-01T06:23:40;0.53;;;0.53;;
13483;SDS011;6814;57.786;12.080;2023-03-01T06:26:07;0.70;;;0.50;;
13483;SDS011;6814;57.786;12.080;2023-03-01T06:28:34;0.50;;;0.50;;
13483;SDS011;6814;57.786;12.080;2023-03-01T06:31:02;0.33;;;0.33;;
13483;SDS011;6814;57.786;12.080;2023-03-01T06:33:28;0.70;;;0.70;;
13483;SDS011;6814;57.786;12.080;2023-03-01T06:35:54;1.13;;;0.80;;
13483;SDS011;6814;57.786;12.080;2023-03-01T06:38:21;0.50;;;0.50;;
13483;SDS011;6814;57.786;12.080;2023-03-01T06:40:51;1.33;;;0.90;;
13483;SDS011;6814;57.786;12.080;2023-03-01T06:43:17;0.73;;;0.73;;
13483;SDS011;6814;57.786;12.080;2023-03-01T06:45:44;1.23;;;0.63;;
13483;SDS011;6814;57.786;12.080;2023-03-01T06:48:11;0.93;;;0.90;;
13483;SDS011;6814;57.786;12.080;2023-03-01T06:50:38;0.70;;;0.57;;
13483;SDS011;6814;57.786;12.080;2023-03-01T06:53:05;1.83;;;0.77;;
13483;SDS011;6814;57.786;12.080;2023-03-01T06:55:31;1.00;;;0.80;;
13483;SDS011;6814;57.786;12.080;2023-03-01T06:57:59;2.83;;;0.87;;
13483;SDS011;6814;57.786;12.080;2023-03-01T07:00:26;0.90;;;0.73;;
13483;SDS011;6814;57.786;12.080;2023-03-01T07:02:53;1.07;;;0.77;;
13483;SDS011;6814;57.786;12.080;2023-03-01T07:05:21;1.97;;;0.83;;
13483;SDS011;6814;57.786;12.080;2023-03-01T07:07:47;1.10;;;0.60;;
13483;SDS011;6814;57.786;12.080;2023-03-01T07:10:16;0.67;;;0.53;;
13483;SDS011;6814;57.786;12.080;2023-03-01T07:12:45;0.77;;;0.77;;
13483;SDS011;6814;57.786;12.080;2023-03-01T07:15:11;1.03;;;0.70;;
13483;SDS011;6814;57.786;12.080;2023-03-01T07:17:40;1.10;;;0.50;;
13483;SDS011;6814;57.786;12.080;2023-03-01T07:20:06;0.43;;;0.43;;
13483;SDS011;6814;57.786;12.080;2023-03-01T07:22:34;0.40;;;0.40;;
13483;SDS011;6814;57.786;12.080;2023-03-01T07:25:01;1.03;;;0.90;;
13483;SDS011;6814;57.786;12.080;2023-03-01T07:27:27;0.80;;;0.80;;
13483;SDS011;6814;57.786;12.080;2023-03-01T07:29:54;0.50;;;0.50;;
13483;SDS011;6814;57.786;12.080;2023-03-01T07:32:20;0.80;;;0.70;;
13483;SDS011;6814;57.786;12.080;2023-03-01T07:34:47;0.70;;;0.60;;
13483;SDS011;6814;57.786;12.080;2023-03-01T07:37:13;1.17;;;0.97;;
13483;SDS011;6814;57.786;12.080;2023-03-01T07:39:41;1.23;;;0.60;;
13483;SDS011;6814;57.786;12.080;2023-03-01T07:42:08;1.40;;;0.70;;
13483;SDS011;6814;57.786;12.080;2023-03-01T07:44:34;0.50;;;0.50;;
13483;SDS011;6814;57.786;12.080;2023-03-01T07:47:01;1.27;;;0.90;;
13483;SDS011;6814;57.786;12.080;2023-03-01T07:49:27;0.70;;;0.70;;
13483;SDS011;6814;57.786;12.080;2023-03-01T07:51:54;0.50;;;0.50;;
13483;SDS011;6814;57.786;12.080;2023-03-01T07:54:21;0.40;;;0.40;;
13483;SDS011;6814;57.786;12.080;2023-03-01T07:56:49;0.50;;;0.50;;
13483;SDS011;6814;57.786;12.080;2023-03-01T07:59:15;0.90;;;0.80;;
13483;SDS011;6814;57.786;12.080;2023-03-01T08:01:42;1.10;;;0.50;;
13483;SDS011;6814;57.786;12.080;2023-03-01T08:04:08;2.10;;;0.70;;
13483;SDS011;6814;57.786;12.080;2023-03-01T08:06:35;0.70;;;0.70;;
13483;SDS011;6814;57.786;12.080;2023-03-01T08:09:02;1.73;;;0.70;;
13483;SDS011;6814;57.786;12.080;2023-03-01T08:11:28;1.90;;;0.60;;
13483;SDS011;6814;57.786;12.080;2023-03-01T08:13:56;2.20;;;0.80;;
13483;SDS011;6814;57.786;12.080;2023-03-01T08:16:23;0.80;;;0.60;;
13483;SDS011;6814;57.786;12.080;2023-03-01T08:18:49;0.43;;;0.43;;
13483;SDS011;6814;57.786;12.080;2023-03-01T08:21:16;1.00;;;0.90;;
13483;SDS011;6814;57.786;12.080;2023-03-01T08:23:43;1.80;;;0.63;;
13483;SDS011;6814;57.786;12.080;2023-03-01T08:26:10;2.67;;;0.70;;
13483;SDS011;6814;57.786;12.080;2023-03-01T08:28:38;0.73;;;0.60;;
13483;SDS011;6814;57.786;12.080;2023-03-01T08:31:14;0.60;;;0.60;;
13483;SDS011;6814;57.786;12.080;2023-03-01T08:33:41;0.70;;;0.70;;
13483;SDS011;6814;57.786;12.080;2023-03-01T08:36:07;0.30;;;0.30;;
13483;SDS011;6814;57.786;12.080;2023-03-01T08:38:34;0.80;;;0.80;;
13483;SDS011;6814;57.786;12.080;2023-03-01T08:41:01;1.33;;;1.07;;
13483;SDS011;6814;57.786;12.080;2023-03-01T08:43:27;0.50;;;0.50;;
13483;SDS011;6814;57.786;12.080;2023-03-01T08:45:55;0.50;;;0.50;;
13483;SDS011;6814;57.786;12.080;2023-03-01T08:48:22;0.40;;;0.40;;
13483;SDS011;6814;57.786;12.080;2023-03-01T08:50:50;1.33;;;0.70;;
13483;SDS011;6814;57.786;12.080;2023-03-01T08:53:16;0.70;;;0.63;;
13483;SDS011;6814;57.786;12.080;2023-03-01T08:55:43;1.07;;;0.53;;
13483;SDS011;6814;57.786;12.080;2023-03-01T08:58:09;1.03;;;0.70;;
13483;SDS011;6814;57.786;12.080;2023-03-01T09:00:35;0.70;;;0.50;;
13483;SDS011;6814;57.786;12.080;2023-03-01T09:03:02;0.60;;;0.60;;
13483;SDS011;6814;57.786;12.080;2023-03-01T09:05:32;0.73;;;0.63;;
13483;SDS011;6814;57.786;12.080;2023-03-01T09:07:59;0.40;;;0.40;;
13483;SDS011;6814;57.786;12.080;2023-03-01T09:10:25;0.53;;;0.53;;
13483;SDS011;6814;57.786;12.080;2023-03-01T09:12:52;1.57;;;0.80;;
13483;SDS011;6814;57.786;12.080;2023-03-01T09:15:18;1.00;;;0.60;;
13483;SDS011;6814;57.786;12.080;2023-03-01T09:17:44;1.00;;;0.60;;
13483;SDS011;6814;57.786;12.080;2023-03-01T09:20:11;0.73;;;0.60;;
13483;SDS011;6814;57.786;12.080;2023-03-01T09:22:39;1.37;;;0.43;;
13483;SDS011;6814;57.786;12.080;2023-03-01T09:25:06;0.87;;;0.60;;
13483;SDS011;6814;57.786;12.080;2023-03-01T09:27:32;0.53;;;0.47;;
13483;SDS011;6814;57.786;12.080;2023-03-01T09:29:59;0.40;;;0.40;;
13483;SDS011;6814;57.786;12.080;2023-03-01T09:32:25;0.30;;;0.30;;
13483;SDS011;6814;57.786;12.080;2023-03-01T09:34:51;1.97;;;0.77;;
13483;SDS011;6814;57.786;12.080;2023-03-01T09:37:29;1.63;;;0.50;;
13483;SDS011;6814;57.786;12.080;2023-03-01T09:39:57;0.50;;;0.50;;
13483;SDS011;6814;57.786;12.080;2023-03-01T09:42:24;0.93;;;0.50;;
13483;SDS011;6814;57.786;12.080;2023-03-01T09:44:51;0.87;;;0.40;;
13483;SDS011;6814;57.786;12.080;2023-03-01T09:47:18;0.63;;;0.37;;
13483;SDS011;6814;57.786;12.080;2023-03-01T09:49:45;0.40;;;0.40;;
13483;SDS011;6814;57.786;12.080;2023-03-01T09:52:19;0.60;;;0.40;;
13483;SDS011;6814;57.786;12.080;2023-03-01T09:54:49;0.50;;;0.40;;
13483;SDS011;6814;57.786;12.080;2023-03-01T09:57:20;1.17;;;0.50;;
13483;SDS011;6814;57.786;12.080;2023-03-01T10:00:00;1.40;;;0.50;;
13483;SDS011;6814;57.786;12.080;2023-03-01T10:02:31;1.67;;;0.40;;
13483;SDS011;6814;57.786;12.080;2023-03-01T10:05:03;0.57;;;0.40;;
13483;SDS011;6814;57.786;12.080;2023-03-01T10:07:32;0.50;;;0.50;;
13483;SDS011;6814;57.786;12.080;2023-03-01T10:10:04;1.43;;;0.50;;
13483;SDS011;6814;57.786;12.080;2023-03-01T10:12:35;1.27;;;0.40;;
13483;SDS011;6814;57.786;12.080;2023-03-01T10:15:03;1.97;;;0.57;;
13483;SDS011;6814;57.786;12.080;2023-03-01T10:17:32;0.47;;;0.40;;
13483;SDS011;6814;57.786;12.080;2023-03-01T10:20:09;2.97;;;0.70;;
13483;SDS011;6814;57.786;12.080;2023-03-01T10:22:36;4.57;;;0.60;;
13483;SDS011;6814;57.786;12.080;2023-03-01T10:25:12;0.40;;;0.30;;
13483;SDS011;6814;57.786;12.080;2023-03-01T10:27:43;0.60;;;0.40;;
13483;SDS011;6814;57.786;12.080;2023-03-01T10:30:12;0.73;;;0.30;;
13483;SDS011;6814;57.786;12.080;2023-03-01T10:32:41;0.77;;;0.50;;
13483;SDS011;6814;57.786;12.080;2023-03-01T10:35:15;0.70;;;0.40;;
13483;SDS011;6814;57.786;12.080;2023-03-01T10:37:46;2.50;;;0.53;;
13483;SDS011;6814;57.786;12.080;2023-03-01T10:40:22;1.50;;;0.40;;
13483;SDS011;6814;57.786;12.080;2023-03-01T10:42:50;1.90;;;0.40;;
13483;SDS011;6814;57.786;12.080;2023-03-01T10:45:23;0.90;;;0.40;;
13483;SDS011;6814;57.786;12.080;2023-03-01T10:47:55;0.93;;;0.50;;
13483;SDS011;6814;57.786;12.080;2023-03-01T10:50:32;0.90;;;0.33;;
13483;SDS011;6814;57.786;12.080;2023-03-01T10:53:00;4.10;;;0.47;;
13483;SDS011;6814;57.786;12.080;2023-03-01T10:55:29;4.63;;;0.60;;
13483;SDS011;6814;57.786;12.080;2023-03-01T10:58:07;1.70;;;0.40;;
13483;SDS011;6814;57.786;12.080;2023-03-01T11:00:34;0.20;;;0.20;;
13483;SDS011;6814;57.786;12.080;2023-03-01T11:03:11;0.40;;;0.40;;
13483;SDS011;6814;57.786;12.080;2023-03-01T11:05:49;1.43;;;0.40;;
13483;SDS011;6814;57.786;12.080;2023-03-01T11:08:25;2.60;;;0.50;;
13483;SDS011;6814;57.786;12.080;2023-03-01T11:11:01;0.93;;;0.30;;
13483;SDS011;6814;57.786;12.080;2023-03-01T11:13:31;1.50;;;0.30;;
13483;SDS011;6814;57.786;12.080;2023-03-01T11:15:58;5.63;;;0.40;;
13483;SDS011;6814;57.786;12.080;2023-03-01T11:18:24;2.23;;;0.60;;
13483;SDS011;6814;57.786;12.080;2023-03-01T11:20:52;1.13;;;0.30;;
13483;SDS011;6814;57.786;12.080;2023-03-01T11:23:19;0.20;;;0.20;;
13483;SDS011;6814;57.786;12.080;2023-03-01T11:25:47;0.83;;;0.37;;
13483;SDS011;6814;57.786;12.080;2023-03-01T11:28:16;0.93;;;0.30;;
13483;SDS011;6814;57.786;12.080;2023-03-01T11:30:46;0.67;;;0.20;;
13483;SDS011;6814;57.786;12.080;2023-03-01T11:33:16;0.30;;;0.20;;
13483;SDS011;6814;57.786;12.080;2023-03-01T11:35:46;1.33;;;0.30;;
13483;SDS011;6814;57.786;12.080;2023-03-01T11:38:16;0.20;;;0.17;;
13483;SDS011;6814;57.786;12.080;2023-03-01T11:40:44;0.47;;;0.47;;
13483;SDS011;6814;57.786;12.080;2023-03-01T11:43:14;0.43;;;0.20;;
13483;SDS011;6814;57.786;12.080;2023-03-01T11:45:58;0.20;;;0.20;;
13483;SDS011;6814;57.786;12.080;2023-03-01T11:48:30;0.77;;;0.30;;
13483;SDS011;6814;57.786;12.080;2023-03-01T11:51:01;0.70;;;0.30;;
13483;SDS011;6814;57.786;12.080;2023-03-01T11:53:32;0.50;;;0.40;;
13483;SDS011;6814;57.786;12.080;2023-03-01T11:56:05;1.13;;;0.43;;
13483;SDS011;6814;57.786;12.080;2023-03-01T11:58:39;0.50;;;0.20;;
13483;SDS011;6814;57.786;12.080;2023-03-01T12:01:20;0.40;;;0.20;;
13483;SDS011;6814;57.786;12.080;2023-03-01T12:03:57;0.40;;;0.30;;
13483;SDS011;6814;57.786;12.080;2023-03-01T12:06:27;0.27;;;0.27;;
13483;SDS011;6814;57.786;12.080;2023-03-01T12:09:00;0.27;;;0.27;;
13483;SDS011;6814;57.786;12.080;2023-03-01T12:11:36;0.30;;;0.30;;
13483;SDS011;6814;57.786;12.080;2023-03-01T12:19:39;0.63;;;0.40;;
13483;SDS011;6814;57.786;12.080;2023-03-01T12:22:11;0.70;;;0.30;;
13483;SDS011;6814;57.786;12.080;2023-03-01T12:27:28;0.60;;;0.40;;
13483;SDS011;6814;57.786;12.080;2023-03-01T12:30:00;14.00;;;0.77;;
13483;SDS011;6814;57.786;12.080;2023-03-01T12:32:36;0.93;;;0.40;;
13483;SDS011;6814;57.786;12.080;2023-03-01T12:35:19;1.03;;;0.40;;
13483;SDS011;6814;57.786;12.080;2023-03-01T12:37:50;1.20;;;0.40;;
13483;SDS011;6814;57.786;12.080;2023-03-01T12:40:38;0.77;;;0.30;;
13483;SDS011;6814;57.786;12.080;2023-03-01T12:43:09;0.40;;;0.30;;
13483;SDS011;6814;57.786;12.080;2023-03-01T12:45:45;0.40;;;0.33;;
13483;SDS011;6814;57.786;12.080;2023-03-01T12:48:21;0.87;;;0.40;;
13483;SDS011;6814;57.786;12.080;2023-03-01T12:50:52;0.33;;;0.30;;
13483;SDS011;6814;57.786;12.080;2023-03-01T12:53:21;0.30;;;0.30;;
13483;SDS011;6814;57.786;12.080;2023-03-01T12:55:48;0.67;;;0.40;;
13483;SDS011;6814;57.786;12.080;2023-03-01T12:58:20;1.17;;;0.60;;
13483;SDS011;6814;57.786;12.080;2023-03-01T13:00:52;0.77;;;0.33;;
13483;SDS011;6814;57.786;12.080;2023-03-01T13:03:25;0.20;;;0.20;;
13483;SDS011;6814;57.786;12.080;2023-03-01T13:06:00;1.80;;;0.40;;
13483;SDS011;6814;57.786;12.080;2023-03-01T13:08:29;0.40;;;0.40;;
13483;SDS011;6814;57.786;12.080;2023-03-01T13:11:00;0.50;;;0.50;;
13483;SDS011;6814;57.786;12.080;2023-03-01T13:13:30;0.20;;;0.20;;
13483;SDS011;6814;57.786;12.080;2023-03-01T13:15:56;0.77;;;0.67;;
13483;SDS011;6814;57.786;12.080;2023-03-01T13:18:32;0.53;;;0.47;;
13483;SDS011;6814;57.786;12.080;2023-03-01T13:21:01;0.50;;;0.30;;
13483;SDS011;6814;57.786;12.080;2023-03-01T13:23:29;0.50;;;0.40;;
13483;SDS011;6814;57.786;12.080;2023-03-01T13:26:00;0.53;;;0.53;;
13483;SDS011;6814;57.786;12.080;2023-03-01T13:34:40;0.50;;;0.50;;
13483;SDS011;6814;57.786;12.080;2023-03-01T13:37:17;1.10;;;0.63;;
13483;SDS011;6814;57.786;12.080;2023-03-01T13:39:44;0.53;;;0.40;;
13483;SDS011;6814;57.786;12.080;2023-03-01T13:42:30;0.53;;;0.50;;
13483;SDS011;6814;57.786;12.080;2023-03-01T13:44:56;1.60;;;0.50;;
13483;SDS011;6814;57.786;12.080;2023-03-01T13:47:23;0.93;;;0.40;;
13483;SDS011;6814;57.786;12.080;2023-03-01T13:49:52;1.37;;;0.50;;
13483;SDS011;6814;57.786;12.080;2023-03-01T13:52:35;2.50;;;0.50;;
13483;SDS011;6814;57.786;12.080;2023-03-01T13:55:03;0.30;;;0.20;;
13483;SDS011;6814;57.786;12.080;2023-03-01T13:57:32;0.20;;;0.20;;
13483;SDS011;6814;57.786;12.080;2023-03-01T13:59:59;0.30;;;0.30;;
13483;SDS011;6814;57.786;12.080;2023-03-01T14:02:26;0.60;;;0.40;;
13483;SDS011;6814;57.786;12.080;2023-03-01T14:04:56;0.83;;;0.20;;
13483;SDS011;6814;57.786;12.080;2023-03-01T14:07:23;0.40;;;0.20;;
13483;SDS011;6814;57.786;12.080;2023-03-01T14:09:52;0.20;;;0.20;;
13483;SDS011;6814;57.786;12.080;2023-03-01T14:12:22;1.23;;;0.20;;
13483;SDS011;6814;57.786;12.080;2023-03-01T14:14:52;0.93;;;0.20;;
13483;SDS011;6814;57.786;12.080;2023-03-01T14:20:07;0.23;;;0.10;;
13483;SDS011;6814;57.786;12.080;2023-03-01T14:22:34;0.83;;;0.20;;
13483;SDS011;6814;57.786;12.080;2023-03-01T14:25:05;0.37;;;0.10;;
13483;SDS011;6814;57.786;12.080;2023-03-01T14:27:33;0.37;;;0.20;;
13483;SDS011;6814;57.786;12.080;2023-03-01T14:30:02;0.40;;;0.10;;
13483;SDS011;6814;57.786;12.080;2023-03-01T14:32:30;0.13;;;0.10;;
13483;SDS011;6814;57.786;12.080;2023-03-01T14:34:58;0.93;;;0.37;;
13483;SDS011;6814;57.786;12.080;2023-03-01T14:37:25;0.20;;;0.20;;
13483;SDS011;6814;57.786;12.080;2023-03-01T14:39:52;0.53;;;0.13;;
13483;SDS011;6814;57.786;12.080;2023-03-01T14:42:20;0.60;;;0.20;;
13483;SDS011;6814;57.786;12.080;2023-03-01T14:44:48;0.20;;;0.20;;
13483;SDS011;6814;57.786;12.080;2023-03-01T14:47:16;0.40;;;0.20;;
13483;SDS011;6814;57.786;12.080;2023-03-01T14:49:47;1.47;;;0.23;;
13483;SDS011;6814;57.786;12.080;2023-03-01T14:52:17;0.10;;;0.10;;
13483;SDS011;6814;57.786;12.080;2023-03-01T14:54:46;1.17;;;0.30;;
13483;SDS011;6814;57.786;12.080;2023-03-01T14:57:14;0.30;;;0.10;;
13483;SDS011;6814;57.786;12.080;2023-03-01T14:59:43;0.43;;;0.10;;
13483;SDS011;6814;57.786;12.080;2023-03-01T15:02:11;1.17;;;0.20;;
13483;SDS011;6814;57.786;12.080;2023-03-01T15:04:42;0.33;;;0.10;;
13483;SDS011;6814;57.786;12.080;2023-03-01T15:07:09;0.20;;;0.13;;
13483;SDS011;6814;57.786;12.080;2023-03-01T15:09:36;0.20;;;0.20;;
13483;SDS011;6814;57.786;12.080;2023-03-01T15:14:45;0.30;;;0.17;;
13483;SDS011;6814;57.786;12.080;2023-03-01T15:17:19;0.90;;;0.20;;